createdAt,value
2023-05-05T00:01:01.144Z,11.06
2023-05-05T00:04:04.298Z,11.24
2023-05-05T00:07:07.186Z,11.03
2023-05-05T00:10:10.733Z,10.80
2023-05-05T00:13:15.203Z,10.60
2023-05-05T00:16:18.381Z,10.53
2023-05-05T00:19:21.104Z,10.66
2023-05-05T00:22:24.653Z,10.76
2023-05-05T00:25:27.465Z,10.77
2023-05-05T00:28:30.821Z,10.90
2023-05-05T00:31:33.672Z,11.03
2023-05-05T00:34:36.695Z,11.09
2023-05-05T00:37:39.301Z,11.12
2023-05-05T00:40:43.103Z,10.96
2023-05-05T00:43:46.480Z,11.12
2023-05-05T00:46:49.773Z,11.25
2023-05-05T00:49:52.507Z,11.29
2023-05-05T00:53:01.089Z,11.42
2023-05-05T00:56:04.166Z,11.35
2023-05-05T00:59:07.235Z,11.36
2023-05-05T01:02:10.764Z,11.40
2023-05-05T01:05:15.425Z,11.46
2023-05-05T01:08:45.057Z,11.50
2023-05-05T01:12:20.403Z,11.57
2023-05-05T01:15:34.486Z,11.67
2023-05-05T01:18:57.177Z,11.69
2023-05-05T01:22:02.989Z,11.75
2023-05-05T01:25:21.093Z,11.77
2023-05-05T01:28:45.604Z,11.70
2023-05-05T01:31:53.846Z,11.62
2023-05-05T01:35:04.661Z,11.70
2023-05-05T01:38:25.675Z,11.63
2023-05-05T01:41:39.710Z,11.56
2023-05-05T01:44:44.723Z,11.60
2023-05-05T01:47:48.170Z,11.58
2023-05-05T01:50:54.253Z,11.62
2023-05-05T01:54:01.883Z,11.49
2023-05-05T01:57:07.813Z,11.35
2023-05-05T02:00:11.725Z,11.05
2023-05-05T02:03:18.147Z,10.92
2023-05-05T02:06:23.124Z,10.93
2023-05-05T02:09:28.556Z,10.92
2023-05-05T02:12:32.907Z,11.06
2023-05-05T02:15:37.778Z,11.06
2023-05-05T02:18:42.753Z,11.12
2023-05-05T02:21:45.787Z,11.11
2023-05-05T02:24:49.782Z,11.15
2023-05-05T02:27:57.458Z,11.20
2023-05-05T02:31:01.489Z,11.25
2023-05-05T02:34:07.707Z,11.42
2023-05-05T02:37:16.026Z,11.38
2023-05-05T02:40:24.583Z,11.49
2023-05-05T02:43:32.951Z,11.35
2023-05-05T02:46:39.048Z,11.42
2023-05-05T02:49:43.328Z,11.37
2023-05-05T02:52:46.297Z,11.33
2023-05-05T02:55:53.978Z,11.39
2023-05-05T02:59:09.002Z,11.48
2023-05-05T03:02:39.129Z,11.52
2023-05-05T03:05:47.735Z,11.58
2023-05-05T03:09:03.910Z,11.55
2023-05-05T03:12:10.551Z,11.45
2023-05-05T03:15:14.742Z,11.35
2023-05-05T03:18:19.546Z,11.35
2023-05-05T03:21:23.236Z,11.21
2023-05-05T03:24:25.990Z,11.10
2023-05-05T03:27:29.807Z,11.01
2023-05-05T03:30:32.613Z,10.90
2023-05-05T03:33:35.659Z,10.77
2023-05-05T03:36:38.921Z,10.73
2023-05-05T03:39:43.464Z,10.56
2023-05-05T03:42:47.134Z,10.26
2023-05-05T03:45:53.256Z,10.17
2023-05-05T03:49:00.194Z,10.13
2023-05-05T03:52:03.866Z,9.97
2023-05-05T03:55:07.173Z,9.96
2023-05-05T03:58:11.274Z,9.96
2023-05-05T04:01:14.034Z,9.91
2023-05-05T04:04:17.165Z,9.90
2023-05-05T04:07:20.242Z,9.82
2023-05-05T04:10:23.693Z,9.82
2023-05-05T04:13:26.871Z,9.85
2023-05-05T04:16:31.276Z,10.00
2023-05-05T04:19:34.872Z,10.18
2023-05-05T04:22:38.445Z,10.22
2023-05-05T04:25:43.675Z,10.38
2023-05-05T04:28:48.115Z,10.48
2023-05-05T04:31:51.424Z,10.57
2023-05-05T04:34:54.810Z,10.71
2023-05-05T04:37:57.892Z,10.70
2023-05-05T04:41:01.314Z,10.84
2023-05-05T04:44:04.194Z,11.07
2023-05-05T04:47:07.696Z,11.35
2023-05-05T04:50:11.702Z,11.72
2023-05-05T04:53:15.233Z,12.12
2023-05-05T04:56:17.912Z,12.36
2023-05-05T04:59:21.075Z,12.61
2023-05-05T05:02:24.041Z,12.97
2023-05-05T05:05:27.122Z,13.51
2023-05-05T05:08:29.905Z,13.86
2023-05-05T05:11:33.006Z,14.13
2023-05-05T05:14:39.864Z,14.44
2023-05-05T05:17:43.242Z,14.79
2023-05-05T05:20:46.302Z,15.01
2023-05-05T05:23:49.849Z,15.33
2023-05-05T05:26:52.656Z,15.63
2023-05-05T05:29:56.259Z,16.03
2023-05-05T05:32:59.923Z,16.05
2023-05-05T05:36:03.481Z,15.90
2023-05-05T05:39:06.577Z,16.11
2023-05-05T05:42:09.913Z,16.35
2023-05-05T05:45:16.360Z,16.32
2023-05-05T05:48:20.286Z,16.71
2023-05-05T05:51:23.027Z,17.05
2023-05-05T05:54:26.781Z,17.01
2023-05-05T05:57:29.481Z,17.45
2023-05-05T06:00:32.567Z,17.22
2023-05-05T06:03:35.918Z,17.25
2023-05-05T06:06:39.158Z,17.23
2023-05-05T06:09:42.193Z,16.97
2023-05-05T06:12:45.467Z,17.33
2023-05-05T06:15:48.791Z,17.73
2023-05-05T06:18:51.934Z,17.73
2023-05-05T06:21:55.094Z,18.14
2023-05-05T06:24:58.349Z,18.28
2023-05-05T06:28:02.298Z,17.86
2023-05-05T06:31:05.252Z,17.88
2023-05-05T06:34:08.449Z,18.05
2023-05-05T06:37:11.377Z,18.55
2023-05-05T06:40:14.601Z,18.35
2023-05-05T06:43:18.087Z,18.26
2023-05-05T06:46:21.624Z,18.37
2023-05-05T06:49:24.283Z,18.47
2023-05-05T06:52:27.376Z,18.15
2023-05-05T06:55:30.075Z,18.62
2023-05-05T06:58:33.143Z,19.33
2023-05-05T07:01:36.204Z,19.78
2023-05-05T07:04:39.426Z,19.86
2023-05-05T07:07:55.773Z,19.31
2023-05-05T07:11:01.186Z,19.31
2023-05-05T07:14:03.938Z,19.69
2023-05-05T07:17:06.921Z,19.75
2023-05-05T07:20:10.811Z,20.32
2023-05-05T07:23:13.901Z,20.42
2023-05-05T07:26:16.714Z,19.84
2023-05-05T07:29:19.770Z,19.55
2023-05-05T07:32:22.780Z,19.50
2023-05-05T07:35:26.610Z,20.12
2023-05-05T07:38:29.174Z,19.83
2023-05-05T07:41:32.265Z,19.65
2023-05-05T07:44:34.940Z,20.69
2023-05-05T07:47:38.301Z,20.59
2023-05-05T07:50:41.391Z,21.10
2023-05-05T07:53:44.576Z,21.56
2023-05-05T07:56:47.263Z,21.31
2023-05-05T07:59:50.654Z,21.95
2023-05-05T08:02:53.481Z,22.41
2023-05-05T08:05:56.718Z,22.66
2023-05-05T08:09:01.293Z,22.45
2023-05-05T08:12:05.160Z,22.01
2023-05-05T08:15:08.676Z,21.89
2023-05-05T08:18:12.166Z,22.23
2023-05-05T08:21:15.055Z,22.77
2023-05-05T08:24:18.071Z,22.44
2023-05-05T08:27:20.748Z,22.66
2023-05-05T08:30:24.300Z,22.70
2023-05-05T08:33:27.039Z,22.71
2023-05-05T08:36:30.138Z,23.31
2023-05-05T08:39:32.792Z,23.29
2023-05-05T08:42:38.512Z,23.36
2023-05-05T08:45:42.414Z,23.55
2023-05-05T08:48:46.173Z,24.14
2023-05-05T08:51:51.443Z,24.85
2023-05-05T08:55:16.147Z,25.63
2023-05-05T08:58:19.975Z,26.47
2023-05-05T09:01:23.732Z,26.38
2023-05-05T09:04:27.044Z,26.25
2023-05-05T09:07:30.331Z,27.07
2023-05-05T09:10:33.917Z,25.95
2023-05-05T09:16:57.478Z,26.05
2023-05-05T09:20:04.929Z,26.59
2023-05-05T09:23:12.459Z,27.00
2023-05-05T09:26:15.551Z,26.94
2023-05-05T09:29:19.857Z,27.51
2023-05-05T09:32:22.976Z,27.12
2023-05-05T09:35:26.375Z,27.36
2023-05-05T09:38:29.399Z,26.58
2023-05-05T09:41:44.538Z,27.06
2023-05-05T09:44:48.402Z,26.73
2023-05-05T09:47:53.219Z,27.47
2023-05-05T09:50:59.938Z,27.43
2023-05-05T09:54:03.033Z,27.91
2023-05-05T09:57:06.168Z,27.81
2023-05-05T10:00:10.870Z,26.73
2023-05-05T10:03:14.101Z,27.48
2023-05-05T10:06:16.926Z,27.48
2023-05-05T10:09:20.029Z,27.48
2023-05-05T10:12:24.308Z,27.22
2023-05-05T10:15:27.472Z,27.15
2023-05-05T10:18:32.222Z,27.49
2023-05-05T10:21:42.046Z,27.17
2023-05-05T10:24:56.646Z,27.86
2023-05-05T10:28:01.402Z,27.90
2023-05-05T10:31:20.375Z,27.12
2023-05-05T10:34:39.683Z,27.07
2023-05-05T10:37:45.067Z,27.64
2023-05-05T10:40:49.041Z,28.12
2023-05-05T10:43:55.745Z,28.11
2023-05-05T10:47:00.198Z,27.95
2023-05-05T10:50:12.119Z,27.53
2023-05-05T10:53:26.269Z,27.92
2023-05-05T10:56:32.978Z,27.47
2023-05-05T10:59:39.136Z,27.50
2023-05-05T11:02:42.168Z,27.84
2023-05-05T11:06:04.237Z,28.40
2023-05-05T11:09:55.105Z,28.88
2023-05-05T11:12:59.488Z,29.31
2023-05-05T11:16:03.074Z,29.21
2023-05-05T11:19:45.251Z,28.82
2023-05-05T11:23:03.446Z,29.45
2023-05-05T11:26:06.668Z,28.96
2023-05-05T11:29:09.760Z,28.03
2023-05-05T11:32:18.681Z,27.02
2023-05-05T11:35:22.078Z,27.41
2023-05-05T11:38:53.361Z,27.44
2023-05-05T11:42:25.242Z,27.16
2023-05-05T11:45:28.552Z,27.45
2023-05-05T11:48:31.314Z,27.50
2023-05-05T11:51:34.597Z,27.94
2023-05-05T11:54:47.999Z,27.78
2023-05-05T11:57:51.357Z,27.60
2023-05-05T12:00:54.144Z,27.40
2023-05-05T12:03:57.451Z,27.28
2023-05-05T12:07:00.869Z,27.32
2023-05-05T12:10:04.118Z,26.96
2023-05-05T12:13:18.466Z,27.09
2023-05-05T12:16:21.734Z,27.51
2023-05-05T12:19:30.034Z,28.03
2023-05-05T12:22:33.142Z,28.39
2023-05-05T12:25:38.464Z,27.78
2023-05-05T12:28:48.303Z,26.76
2023-05-05T12:31:51.738Z,27.28
2023-05-05T12:34:57.708Z,27.82
2023-05-05T12:38:00.644Z,27.59
2023-05-05T12:41:04.307Z,27.53
2023-05-05T12:44:07.009Z,27.65
2023-05-05T12:47:12.504Z,27.61
2023-05-05T12:50:15.254Z,28.07
2023-05-05T12:53:25.799Z,27.36
2023-05-05T12:56:34.913Z,26.67
2023-05-05T12:59:37.872Z,26.52
2023-05-05T13:02:41.004Z,26.88
2023-05-05T13:05:44.011Z,27.22
2023-05-05T13:08:46.789Z,27.19
2023-05-05T13:11:49.726Z,27.46
2023-05-05T13:14:52.424Z,27.62
2023-05-05T13:18:01.881Z,27.25
2023-05-05T13:21:04.788Z,27.52
2023-05-05T13:24:23.566Z,27.54
2023-05-05T13:27:30.914Z,27.80
2023-05-05T13:30:33.902Z,26.90
2023-05-05T13:33:36.775Z,27.09
2023-05-05T13:36:39.846Z,26.95
2023-05-05T13:39:42.464Z,26.99
2023-05-05T13:42:45.759Z,26.67
2023-05-05T13:45:48.376Z,26.68
2023-05-05T13:48:56.057Z,26.55
2023-05-05T13:51:59.572Z,27.17
2023-05-05T13:55:02.955Z,26.92
2023-05-05T13:58:05.809Z,26.47
2023-05-05T14:01:08.815Z,26.74
2023-05-05T14:04:12.007Z,26.47
2023-05-05T14:07:14.717Z,25.73
2023-05-05T14:10:17.917Z,25.08
2023-05-05T14:13:20.626Z,25.72
2023-05-05T14:16:24.022Z,25.77
2023-05-05T14:19:26.968Z,25.81
2023-05-05T14:22:29.927Z,25.50
2023-05-05T14:25:32.827Z,24.70
2023-05-05T14:28:36.078Z,25.08
2023-05-05T14:31:38.824Z,25.02
2023-05-05T14:34:41.942Z,24.75
2023-05-05T14:37:44.795Z,25.13
2023-05-05T14:40:47.944Z,25.01
2023-05-05T14:43:50.851Z,24.83
2023-05-05T14:46:53.951Z,24.58
2023-05-05T14:49:56.839Z,24.27
2023-05-05T14:53:00.033Z,24.04
2023-05-05T14:56:02.775Z,23.67
2023-05-05T14:59:05.835Z,23.68
2023-05-05T15:02:08.565Z,23.72
2023-05-05T15:05:11.788Z,23.66
2023-05-05T15:08:17.191Z,23.72
2023-05-05T15:11:20.682Z,23.60
2023-05-05T15:14:23.266Z,23.45
2023-05-05T15:17:26.300Z,23.31
2023-05-05T15:20:29.021Z,23.29
2023-05-05T15:23:32.053Z,22.92
2023-05-05T15:26:34.960Z,23.00
2023-05-05T15:29:38.004Z,22.98
2023-05-05T15:32:41.278Z,22.90
2023-05-05T15:35:44.543Z,22.62
2023-05-05T15:38:47.842Z,22.94
2023-05-05T15:41:50.951Z,22.98
2023-05-05T15:44:54.020Z,22.76
2023-05-05T15:47:57.071Z,22.70
2023-05-05T15:50:59.893Z,22.68
2023-05-05T15:54:03.522Z,22.44
2023-05-05T15:57:06.445Z,22.39
2023-05-05T16:00:12.874Z,22.36
2023-05-05T16:03:18.938Z,22.40
2023-05-05T16:06:22.297Z,22.36
2023-05-05T16:09:26.535Z,22.38
2023-05-05T16:12:29.337Z,22.49
2023-05-05T16:15:32.289Z,22.45
2023-05-05T16:18:35.294Z,22.46
2023-05-05T16:21:38.459Z,22.28
2023-05-05T16:24:44.482Z,22.36
2023-05-05T16:27:47.545Z,22.33
2023-05-05T16:30:50.194Z,22.23
2023-05-05T16:33:53.354Z,22.18
2023-05-05T16:36:56.532Z,22.03
2023-05-05T16:40:01.540Z,21.98
2023-05-05T16:43:05.069Z,21.83
2023-05-05T16:46:08.296Z,21.84
2023-05-05T16:49:11.446Z,21.84
2023-05-05T16:52:14.618Z,21.77
2023-05-05T16:55:18.058Z,21.75
2023-05-05T16:58:25.072Z,21.72
2023-05-05T17:01:27.805Z,21.60
2023-05-05T17:04:31.063Z,21.55
2023-05-05T17:07:34.546Z,21.52
2023-05-05T17:10:38.095Z,21.33
2023-05-05T17:13:40.952Z,21.29
2023-05-05T17:16:43.913Z,21.23
2023-05-05T17:19:46.659Z,21.14
2023-05-05T17:22:49.576Z,21.02
2023-05-05T17:25:52.588Z,20.93
2023-05-05T17:28:55.692Z,20.87
2023-05-05T17:31:58.606Z,20.77
2023-05-05T17:35:01.775Z,20.66
2023-05-05T17:38:04.632Z,20.55
2023-05-05T17:41:08.298Z,20.38
2023-05-05T17:44:11.046Z,20.25
2023-05-05T17:47:14.034Z,20.08
2023-05-05T17:50:17.010Z,19.92
2023-05-05T17:53:20.052Z,19.74
2023-05-05T17:56:22.893Z,19.62
2023-05-05T17:59:26.351Z,19.40
2023-05-05T18:02:29.243Z,19.18
2023-05-05T18:05:32.727Z,19.08
2023-05-05T18:08:36.196Z,19.01
2023-05-05T18:11:39.314Z,18.87
2023-05-05T18:14:42.312Z,18.68
2023-05-05T18:17:45.470Z,18.49
2023-05-05T18:20:48.308Z,18.42
2023-05-05T18:23:51.565Z,18.33
2023-05-05T18:26:54.752Z,18.35
2023-05-05T18:29:57.877Z,18.22
2023-05-05T18:33:00.836Z,18.10
2023-05-05T18:36:04.211Z,18.05
2023-05-05T18:39:06.909Z,18.08
2023-05-05T18:42:10.065Z,18.01
2023-05-05T18:45:13.065Z,17.98
2023-05-05T18:48:16.709Z,17.88
2023-05-05T18:51:19.585Z,17.50
2023-05-05T18:54:23.209Z,17.48
2023-05-05T18:57:27.447Z,17.48
2023-05-05T19:00:31.185Z,17.48
2023-05-05T19:03:34.321Z,17.33
2023-05-05T19:06:39.430Z,17.27
2023-05-05T19:09:44.752Z,17.12
2023-05-05T19:12:48.056Z,16.81
2023-05-05T19:15:52.016Z,16.77
2023-05-05T19:18:58.895Z,16.73
2023-05-05T19:22:02.985Z,16.70
2023-05-05T19:25:06.979Z,16.63
2023-05-05T19:28:11.442Z,16.59
2023-05-05T19:31:14.861Z,16.47
2023-05-05T19:34:17.602Z,16.52
2023-05-05T19:37:21.164Z,16.57
2023-05-05T19:40:24.068Z,16.45
2023-05-05T19:43:27.157Z,16.18
2023-05-05T19:46:30.238Z,16.07
2023-05-05T19:49:33.195Z,15.96
2023-05-05T19:52:37.310Z,16.00
2023-05-05T19:55:40.723Z,15.96
2023-05-05T19:58:57.879Z,15.80
2023-05-05T20:02:01.036Z,15.63
2023-05-05T20:05:04.404Z,15.64
2023-05-05T20:08:07.189Z,15.65
2023-05-05T20:11:10.385Z,15.61
2023-05-05T20:14:13.080Z,15.50
2023-05-05T20:17:20.337Z,15.38
2023-05-05T20:20:23.198Z,15.04
2023-05-05T20:23:27.108Z,14.99
2023-05-05T20:26:31.186Z,14.90
2023-05-05T20:29:34.227Z,14.87
2023-05-05T20:32:37.389Z,14.97
2023-05-05T20:35:40.553Z,14.91
2023-05-05T20:38:43.656Z,15.06
2023-05-05T20:41:46.940Z,15.04
2023-05-05T20:44:49.888Z,14.98
2023-05-05T20:47:53.180Z,14.79
2023-05-05T20:50:56.230Z,14.62
2023-05-05T20:53:59.285Z,14.59
2023-05-05T20:57:03.254Z,14.55
2023-05-05T21:00:07.787Z,14.55
2023-05-05T21:03:10.781Z,14.58
2023-05-05T21:06:14.021Z,14.50
2023-05-05T21:09:16.949Z,14.44
2023-05-05T21:12:20.260Z,14.29
2023-05-05T21:15:24.066Z,14.20
2023-05-05T21:18:27.904Z,14.12
2023-05-05T21:21:30.686Z,14.22
2023-05-05T21:24:33.557Z,14.12
2023-05-05T21:27:36.355Z,13.98
2023-05-05T21:30:39.725Z,14.15
2023-05-05T21:33:42.629Z,14.07
2023-05-05T21:36:46.975Z,14.17
2023-05-05T21:39:49.817Z,14.09
2023-05-05T21:42:54.275Z,14.07
2023-05-05T21:46:06.895Z,14.03
2023-05-05T21:49:17.200Z,13.92
2023-05-05T21:52:21.074Z,13.73
2023-05-05T21:55:25.115Z,13.70
2023-05-05T21:58:28.021Z,13.67
2023-05-05T22:01:33.058Z,13.70
2023-05-05T22:04:37.413Z,13.77
2023-05-05T22:07:41.228Z,13.69
2023-05-05T22:10:45.363Z,13.67
2023-05-05T22:13:48.453Z,13.55
2023-05-05T22:16:51.669Z,13.55
2023-05-05T22:19:54.388Z,13.47
2023-05-05T22:22:58.310Z,13.43
2023-05-05T22:26:02.953Z,13.49
2023-05-05T22:29:08.371Z,13.44
2023-05-05T22:32:11.659Z,13.49
2023-05-05T22:35:15.947Z,13.29
2023-05-05T22:38:19.597Z,13.24
2023-05-05T22:41:22.662Z,13.30
2023-05-05T22:44:25.371Z,13.12
2023-05-05T22:47:28.898Z,12.97
2023-05-05T22:50:31.703Z,12.97
2023-05-05T22:53:34.896Z,13.05
2023-05-05T22:56:39.276Z,12.74
2023-05-05T22:59:42.280Z,12.72
2023-05-05T23:02:45.918Z,12.74
2023-05-05T23:05:50.783Z,12.79
2023-05-05T23:08:55.157Z,12.80
2023-05-05T23:11:58.118Z,12.58
2023-05-05T23:15:01.978Z,12.77
2023-05-05T23:18:07.252Z,12.82
2023-05-05T23:21:11.653Z,12.51
2023-05-05T23:24:16.566Z,12.47
2023-05-05T23:27:20.069Z,12.52
2023-05-05T23:30:23.506Z,12.49
2023-05-05T23:33:26.888Z,12.44
2023-05-05T23:36:30.376Z,12.58
2023-05-05T23:39:36.275Z,12.38
2023-05-05T23:42:39.279Z,12.55
2023-05-05T23:45:42.357Z,12.54
2023-05-05T23:48:45.429Z,12.55
2023-05-05T23:51:48.098Z,12.57
2023-05-05T23:54:51.222Z,12.30
2023-05-05T23:57:53.903Z,12.18
